createdAt,value
2022-08-09T00:02:28.294Z,14.34
2022-08-09T00:05:03.591Z,14.36
2022-08-09T00:07:44.416Z,14.37
2022-08-09T00:10:18.002Z,14.30
2022-08-09T00:12:52.601Z,14.25
2022-08-09T00:15:35.353Z,14.24
2022-08-09T00:18:10.802Z,14.19
2022-08-09T00:20:42.374Z,14.23
2022-08-09T00:23:55.324Z,14.22
2022-08-09T00:26:05.391Z,14.22
2022-08-09T00:28:34.449Z,14.20
2022-08-09T00:31:50.428Z,14.21
2022-08-09T00:33:51.979Z,14.14
2022-08-09T00:36:20.428Z,14.17
2022-08-09T00:38:50.659Z,14.15
2022-08-09T00:44:10.934Z,14.01
2022-08-09T00:44:13.884Z,14.00
2022-08-09T00:46:57.871Z,14.04
2022-08-09T00:49:32.451Z,14.04
2022-08-09T00:52:05.394Z,14.01
2022-08-09T00:54:36.391Z,14.01
2022-08-09T00:57:10.122Z,14.00
2022-08-09T00:59:46.382Z,13.90
2022-08-09T01:02:21.341Z,13.78
2022-08-09T01:05:03.478Z,13.88
2022-08-09T01:08:00.049Z,13.91
2022-08-09T01:10:31.612Z,13.85
2022-08-09T01:13:03.373Z,13.81
2022-08-09T01:15:41.055Z,13.82
2022-08-09T01:18:30.247Z,13.75
2022-08-09T01:21:14.140Z,13.66
2022-08-09T01:24:01.902Z,13.54
2022-08-09T01:26:52.969Z,13.68
2022-08-09T01:29:29.420Z,13.50
2022-08-09T01:32:31.790Z,13.37
2022-08-09T01:34:59.880Z,13.25
2022-08-09T01:38:06.316Z,13.40
2022-08-09T01:40:28.630Z,13.29
2022-08-09T01:42:56.997Z,13.42
2022-08-09T01:45:25.250Z,13.49
2022-08-09T01:47:52.668Z,13.50
2022-08-09T01:50:29.994Z,13.48
2022-08-09T01:53:19.324Z,13.46
2022-08-09T01:55:47.681Z,13.44
2022-08-09T01:58:16.006Z,13.41
2022-08-09T02:00:46.011Z,13.37
2022-08-09T02:03:15.439Z,13.36
2022-08-09T02:05:53.610Z,13.31
2022-08-09T02:08:39.346Z,13.29
2022-08-09T02:11:20.113Z,13.27
2022-08-09T02:14:06.586Z,13.26
2022-08-09T02:16:59.307Z,13.05
2022-08-09T02:19:24.074Z,12.94
2022-08-09T02:22:08.397Z,13.01
2022-08-09T02:24:37.941Z,13.09
2022-08-09T02:27:09.640Z,12.96
2022-08-09T02:29:43.376Z,13.07
2022-08-09T02:32:12.530Z,13.11
2022-08-09T02:34:52.031Z,13.13
2022-08-09T02:37:31.747Z,13.09
2022-08-09T02:40:09.447Z,12.98
2022-08-09T02:42:39.614Z,12.99
2022-08-09T02:45:12.335Z,13.01
2022-08-09T02:47:57.674Z,12.89
2022-08-09T02:50:31.052Z,12.79
2022-08-09T02:53:03.770Z,12.93
2022-08-09T02:55:46.193Z,12.92
2022-08-09T02:58:36.062Z,12.97
2022-08-09T03:01:07.965Z,12.85
2022-08-09T03:04:16.553Z,12.93
2022-08-09T03:06:27.686Z,12.93
2022-08-09T03:08:55.783Z,12.95
2022-08-09T03:12:04.442Z,12.95
2022-08-09T03:14:11.871Z,12.95
2022-08-09T03:16:45.236Z,12.81
2022-08-09T03:19:57.812Z,12.75
2022-08-09T03:22:05.362Z,12.80
2022-08-09T03:24:51.889Z,12.82
2022-08-09T03:27:21.611Z,12.61
2022-08-09T03:29:57.603Z,12.59
2022-08-09T03:32:31.438Z,12.52
2022-08-09T03:34:59.564Z,12.66
2022-08-09T03:37:56.492Z,12.67
2022-08-09T03:40:16.983Z,12.71
2022-08-09T03:42:45.556Z,12.72
2022-08-09T03:45:13.660Z,12.73
2022-08-09T03:47:46.418Z,12.67
2022-08-09T03:50:18.822Z,12.66
2022-08-09T03:52:57.943Z,12.45
2022-08-09T03:55:26.637Z,12.54
2022-08-09T03:58:06.263Z,12.63
2022-08-09T04:00:42.946Z,12.57
2022-08-09T04:03:11.820Z,12.60
2022-08-09T04:05:46.736Z,12.61
2022-08-09T04:08:13.317Z,12.60
2022-08-09T04:10:40.027Z,12.59
2022-08-09T04:13:11.510Z,12.63
2022-08-09T04:16:17.563Z,12.51
2022-08-09T04:18:25.798Z,12.54
2022-08-09T04:20:55.490Z,12.49
2022-08-09T04:23:24.896Z,12.46
2022-08-09T04:25:54.304Z,12.56
2022-08-09T04:28:34.293Z,12.62
2022-08-09T04:31:08.093Z,12.59
2022-08-09T04:33:52.429Z,12.44
2022-08-09T04:36:21.414Z,12.40
2022-08-09T04:38:50.146Z,12.38
2022-08-09T04:41:16.703Z,12.38
2022-08-09T04:43:53.803Z,12.37
2022-08-09T04:46:37.793Z,12.32
2022-08-09T04:49:17.604Z,12.37
2022-08-09T04:51:59.103Z,12.42
2022-08-09T04:54:25.909Z,12.49
2022-08-09T04:56:52.791Z,12.56
2022-08-09T04:59:22.625Z,12.55
2022-08-09T05:01:49.419Z,12.57
2022-08-09T05:04:19.363Z,12.60
2022-08-09T05:06:46.049Z,12.71
2022-08-09T05:09:17.491Z,12.73
2022-08-09T05:11:44.354Z,12.78
2022-08-09T05:14:10.940Z,12.84
2022-08-09T05:16:58.185Z,12.88
2022-08-09T05:19:44.675Z,12.95
2022-08-09T05:23:50.409Z,13.06
2022-08-09T05:25:01.101Z,13.13
2022-08-09T05:27:31.054Z,13.20
2022-08-09T05:29:57.809Z,13.29
2022-08-09T05:32:26.144Z,13.38
2022-08-09T05:34:56.824Z,13.45
2022-08-09T05:37:23.820Z,13.51
2022-08-09T05:39:52.402Z,13.58
2022-08-09T05:42:21.526Z,13.65
2022-08-09T05:44:52.168Z,13.72
2022-08-09T05:47:21.513Z,13.76
2022-08-09T05:50:25.156Z,13.82
2022-08-09T05:52:36.189Z,13.87
2022-08-09T05:55:07.190Z,13.94
2022-08-09T05:57:55.120Z,13.97
2022-08-09T06:00:22.528Z,14.05
2022-08-09T06:02:49.355Z,14.12
2022-08-09T06:05:50.144Z,14.20
2022-08-09T06:08:09.076Z,14.23
2022-08-09T06:10:38.593Z,14.28
2022-08-09T06:13:18.594Z,14.32
2022-08-09T06:15:51.561Z,14.33
2022-08-09T06:18:25.273Z,14.43
2022-08-09T06:20:57.803Z,14.49
2022-08-09T06:23:58.634Z,14.58
2022-08-09T06:26:14.499Z,14.65
2022-08-09T06:28:43.252Z,14.72
2022-08-09T06:31:10.567Z,14.79
2022-08-09T06:33:41.715Z,14.85
2022-08-09T06:36:11.863Z,14.94
2022-08-09T06:38:42.988Z,15.12
2022-08-09T06:41:18.827Z,15.17
2022-08-09T06:43:47.157Z,15.26
2022-08-09T06:46:39.065Z,15.47
2022-08-09T06:49:01.451Z,15.68
2022-08-09T06:51:29.202Z,15.78
2022-08-09T06:54:01.052Z,15.83
2022-08-09T06:56:30.927Z,15.82
2022-08-09T07:00:48.977Z,15.84
2022-08-09T07:01:54.423Z,15.93
2022-08-09T07:04:30.460Z,16.07
2022-08-09T07:07:00.373Z,16.26
2022-08-09T07:09:55.439Z,16.34
2022-08-09T07:12:17.419Z,16.47
2022-08-09T07:14:51.461Z,16.62
2022-08-09T07:17:19.905Z,16.60
2022-08-09T07:19:48.097Z,16.60
2022-08-09T07:22:18.314Z,16.64
2022-08-09T07:24:49.647Z,16.66
2022-08-09T07:27:27.153Z,16.84
2022-08-09T07:30:02.623Z,16.93
2022-08-09T07:32:33.195Z,16.98
2022-08-09T07:35:08.014Z,17.24
2022-08-09T07:37:43.649Z,17.18
2022-08-09T07:40:17.451Z,17.39
2022-08-09T07:42:54.524Z,17.57
2022-08-09T07:45:37.445Z,17.61
2022-08-09T07:48:08.172Z,17.69
2022-08-09T07:50:53.132Z,17.66
2022-08-09T07:54:04.522Z,17.92
2022-08-09T07:56:27.272Z,18.05
2022-08-09T07:58:54.824Z,18.17
2022-08-09T08:01:21.762Z,18.24
2022-08-09T08:03:55.403Z,18.30
2022-08-09T08:06:22.478Z,18.42
2022-08-09T08:09:04.532Z,18.53
2022-08-09T08:12:25.170Z,18.73
2022-08-09T08:14:18.593Z,18.91
2022-08-09T08:17:00.373Z,19.13
2022-08-09T08:19:33.966Z,19.12
2022-08-09T08:22:02.127Z,19.13
2022-08-09T08:24:34.339Z,19.21
2022-08-09T08:27:16.735Z,19.19
2022-08-09T08:29:48.807Z,19.25
2022-08-09T08:32:18.927Z,19.38
2022-08-09T08:34:52.039Z,19.61
2022-08-09T08:37:22.038Z,19.75
2022-08-09T08:39:51.821Z,19.91
2022-08-09T08:42:18.553Z,20.02
2022-08-09T08:44:57.801Z,20.06
2022-08-09T08:47:27.584Z,20.14
2022-08-09T08:49:57.472Z,20.36
2022-08-09T08:55:23.251Z,20.51
2022-08-09T08:57:57.541Z,20.60
2022-08-09T09:00:29.837Z,20.78
2022-08-09T09:03:08.835Z,20.92
2022-08-09T09:06:00.909Z,21.05
2022-08-09T09:08:38.061Z,21.21
2022-08-09T09:11:13.630Z,21.21
2022-08-09T09:13:55.904Z,21.36
2022-08-09T09:16:30.341Z,21.59
2022-08-09T09:22:07.715Z,21.59
2022-08-09T09:24:49.102Z,21.60
2022-08-09T09:28:03.314Z,21.66
2022-08-09T09:30:40.220Z,21.82
2022-08-09T09:33:16.851Z,21.97
2022-08-09T09:36:03.671Z,21.91
2022-08-09T09:38:48.543Z,21.82
2022-08-09T09:41:32.508Z,22.11
2022-08-09T09:44:11.088Z,22.04
2022-08-09T09:46:45.614Z,22.12
2022-08-09T09:49:18.954Z,22.23
2022-08-09T09:52:02.535Z,22.22
2022-08-09T09:54:37.977Z,22.36
2022-08-09T09:58:03.859Z,22.44
2022-08-09T10:00:26.430Z,22.70
2022-08-09T10:02:53.555Z,22.65
2022-08-09T10:05:27.119Z,22.72
2022-08-09T10:08:25.952Z,22.66
2022-08-09T10:10:54.985Z,22.73
2022-08-09T10:13:42.824Z,22.81
2022-08-09T10:16:58.313Z,22.96
2022-08-09T10:18:59.983Z,22.99
2022-08-09T10:21:27.642Z,23.02
2022-08-09T10:23:56.448Z,22.99
2022-08-09T10:26:26.703Z,23.05
2022-08-09T10:29:20.973Z,23.02
2022-08-09T10:34:32.764Z,22.97
2022-08-09T10:37:01.235Z,22.99
2022-08-09T10:39:29.567Z,22.96
2022-08-09T10:41:56.219Z,22.80
2022-08-09T10:44:26.244Z,22.72
2022-08-09T10:48:19.518Z,22.64
2022-08-09T10:50:30.730Z,22.60
2022-08-09T10:53:05.561Z,22.63
2022-08-09T10:55:58.538Z,22.76
2022-08-09T10:58:33.793Z,22.85
2022-08-09T11:03:06.875Z,22.95
2022-08-09T11:04:29.636Z,23.21
2022-08-09T11:06:59.770Z,23.28
2022-08-09T11:09:47.727Z,23.30
2022-08-09T11:12:20.273Z,23.33
2022-08-09T11:14:54.452Z,23.61
2022-08-09T11:17:22.696Z,23.72
2022-08-09T11:20:11.909Z,23.85
2022-08-09T11:22:58.412Z,23.63
2022-08-09T11:25:47.449Z,23.81
2022-08-09T11:28:35.183Z,23.81
2022-08-09T11:31:43.410Z,23.77
2022-08-09T11:34:24.859Z,23.74
2022-08-09T11:36:51.794Z,24.00
2022-08-09T11:39:18.602Z,24.13
2022-08-09T11:41:46.709Z,24.22
2022-08-09T11:44:15.728Z,24.17
2022-08-09T11:47:00.801Z,24.17
2022-08-09T11:50:52.179Z,24.27
2022-08-09T11:53:15.990Z,24.42
2022-08-09T11:55:52.369Z,24.64
2022-08-09T11:58:30.350Z,24.73
2022-08-09T12:01:08.573Z,24.56
2022-08-09T12:03:56.067Z,24.46
2022-08-09T12:06:32.596Z,24.54
2022-08-09T12:09:05.906Z,24.75
2022-08-09T12:12:02.647Z,24.77
2022-08-09T12:14:40.777Z,24.61
2022-08-09T12:17:27.502Z,24.56
2022-08-09T12:20:12.346Z,24.42
2022-08-09T12:22:44.847Z,24.25
2022-08-09T12:25:15.200Z,24.25
2022-08-09T12:29:12.463Z,24.20
2022-08-09T12:30:36.731Z,24.23
2022-08-09T12:33:05.652Z,24.19
2022-08-09T12:35:41.057Z,24.19
2022-08-09T12:38:29.621Z,24.39
2022-08-09T12:41:04.347Z,24.52
2022-08-09T12:44:05.673Z,24.63
2022-08-09T12:46:21.718Z,24.62
2022-08-09T12:48:52.207Z,24.77
2022-08-09T12:51:52.294Z,24.74
2022-08-09T12:54:08.229Z,24.93
2022-08-09T12:56:51.240Z,24.95
2022-08-09T12:59:22.963Z,25.05
2022-08-09T13:02:09.302Z,25.10
2022-08-09T13:04:38.567Z,25.03
2022-08-09T13:07:14.083Z,25.03
2022-08-09T13:09:43.222Z,24.91
2022-08-09T13:12:10.254Z,24.99
2022-08-09T13:14:47.342Z,24.88
2022-08-09T13:17:43.926Z,24.80
2022-08-09T13:20:14.288Z,24.81
2022-08-09T13:23:01.306Z,25.05
2022-08-09T13:25:52.806Z,25.04
2022-08-09T13:28:34.627Z,24.94
2022-08-09T13:32:13.750Z,24.89
2022-08-09T13:33:54.651Z,24.79
2022-08-09T13:36:38.449Z,24.92
2022-08-09T13:41:17.151Z,24.99
2022-08-09T13:42:14.014Z,24.88
2022-08-09T13:44:43.195Z,24.96
2022-08-09T13:47:27.737Z,25.09
2022-08-09T13:50:02.773Z,25.10
2022-08-09T13:52:30.873Z,25.08
2022-08-09T13:55:00.843Z,25.07
2022-08-09T13:57:35.492Z,25.39
2022-08-09T14:00:12.752Z,25.62
2022-08-09T14:02:42.596Z,25.62
2022-08-09T14:05:57.013Z,25.07
2022-08-09T14:08:17.301Z,25.45
2022-08-09T14:10:50.492Z,25.40
2022-08-09T14:14:14.896Z,25.35
2022-08-09T14:16:13.720Z,25.38
2022-08-09T14:18:45.347Z,25.51
2022-08-09T14:21:17.600Z,25.29
2022-08-09T14:23:54.725Z,25.31
2022-08-09T14:26:25.287Z,25.12
2022-08-09T14:28:52.250Z,25.34
2022-08-09T14:31:19.079Z,25.20
2022-08-09T14:33:52.212Z,25.31
2022-08-09T14:36:21.509Z,25.31
2022-08-09T14:38:52.496Z,25.23
2022-08-09T14:41:39.692Z,25.46
2022-08-09T14:44:09.564Z,25.48
2022-08-09T14:47:04.674Z,25.59
2022-08-09T14:49:26.278Z,25.75
2022-08-09T14:51:58.833Z,25.88
2022-08-09T14:54:27.854Z,26.01
2022-08-09T14:56:57.948Z,26.01
2022-08-09T14:59:27.391Z,26.07
2022-08-09T15:01:55.902Z,26.13
2022-08-09T15:04:23.610Z,26.14
2022-08-09T15:06:51.610Z,25.92
2022-08-09T15:10:03.105Z,25.69
2022-08-09T15:12:07.841Z,25.59
2022-08-09T15:14:38.512Z,25.50
2022-08-09T15:17:09.595Z,25.50
2022-08-09T15:19:37.054Z,25.64
2022-08-09T15:22:26.168Z,25.55
2022-08-09T15:24:53.582Z,25.50
2022-08-09T15:27:21.463Z,25.45
2022-08-09T15:30:56.876Z,25.31
2022-08-09T15:32:35.566Z,25.22
2022-08-09T15:35:02.387Z,25.08
2022-08-09T15:37:56.794Z,24.97
2022-08-09T15:40:33.842Z,24.95
2022-08-09T15:43:01.941Z,24.91
2022-08-09T15:45:30.076Z,24.89
2022-08-09T15:48:05.137Z,24.86
2022-08-09T15:50:34.691Z,24.87
2022-08-09T15:53:17.814Z,25.04
2022-08-09T15:56:04.681Z,25.03
2022-08-09T15:58:33.017Z,25.10
2022-08-09T16:00:59.792Z,25.15
2022-08-09T16:03:38.364Z,25.13
2022-08-09T16:06:32.673Z,25.05
2022-08-09T16:08:56.127Z,25.04
2022-08-09T16:11:22.973Z,25.08
2022-08-09T16:14:04.046Z,25.03
2022-08-09T16:16:37.185Z,24.96
2022-08-09T16:19:06.222Z,24.97
2022-08-09T16:21:35.767Z,24.98
2022-08-09T16:24:04.810Z,24.98
2022-08-09T16:26:34.456Z,24.91
2022-08-09T16:29:10.407Z,24.94
2022-08-09T16:32:19.293Z,24.80
2022-08-09T16:34:54.447Z,24.70
2022-08-09T16:37:18.440Z,24.67
2022-08-09T16:39:54.854Z,24.59
2022-08-09T16:42:33.523Z,24.44
2022-08-09T16:45:00.196Z,24.40
2022-08-09T16:48:38.160Z,24.33
2022-08-09T16:50:30.042Z,24.21
2022-08-09T16:52:59.952Z,24.17
2022-08-09T16:55:26.599Z,24.17
2022-08-09T16:58:10.113Z,24.20
2022-08-09T17:00:38.765Z,24.20
2022-08-09T17:03:21.135Z,24.41
2022-08-09T17:06:08.308Z,24.23
2022-08-09T17:09:02.795Z,24.12
2022-08-09T17:11:40.239Z,24.06
2022-08-09T17:14:26.312Z,23.97
2022-08-09T17:16:56.890Z,23.86
2022-08-09T17:19:27.728Z,23.84
2022-08-09T17:22:14.522Z,23.82
2022-08-09T17:24:41.394Z,23.81
2022-08-09T17:27:15.498Z,23.76
2022-08-09T17:29:45.530Z,23.80
2022-08-09T17:32:15.754Z,23.76
2022-08-09T17:35:07.388Z,23.86
2022-08-09T17:37:29.901Z,23.81
2022-08-09T17:39:56.794Z,23.74
2022-08-09T17:42:42.030Z,23.71
2022-08-09T17:45:23.709Z,23.67
2022-08-09T17:48:02.491Z,23.59
2022-08-09T17:50:37.167Z,23.54
2022-08-09T17:53:19.288Z,23.43
2022-08-09T17:55:50.220Z,23.39
2022-08-09T17:58:19.171Z,23.27
2022-08-09T18:00:48.083Z,23.11
2022-08-09T18:03:15.381Z,23.04
2022-08-09T18:05:44.745Z,22.86
2022-08-09T18:08:13.363Z,22.78
2022-08-09T18:10:45.963Z,22.68
2022-08-09T18:13:39.591Z,22.55
2022-08-09T18:16:09.011Z,22.48
2022-08-09T18:18:43.293Z,22.46
2022-08-09T18:21:23.011Z,22.38
2022-08-09T18:24:09.886Z,22.28
2022-08-09T18:26:46.609Z,22.16
2022-08-09T18:30:42.689Z,22.04
2022-08-09T18:32:03.090Z,21.97
2022-08-09T18:34:31.820Z,21.90
2022-08-09T18:36:58.720Z,21.84
2022-08-09T18:39:31.923Z,21.78
2022-08-09T18:42:01.056Z,21.75
2022-08-09T18:44:27.880Z,21.69
2022-08-09T18:47:07.839Z,21.61
2022-08-09T18:49:41.414Z,21.56
2022-08-09T18:52:12.117Z,21.50
2022-08-09T18:54:49.780Z,21.38
2022-08-09T18:57:22.133Z,21.16
2022-08-09T18:59:54.381Z,21.00
2022-08-09T19:02:30.566Z,20.86
2022-08-09T19:05:14.237Z,20.78
2022-08-09T19:07:59.015Z,20.66
2022-08-09T19:10:29.049Z,20.59
2022-08-09T19:13:18.417Z,20.54
2022-08-09T19:15:49.846Z,20.48
2022-08-09T19:18:33.524Z,20.43
2022-08-09T19:21:09.757Z,20.42
2022-08-09T19:24:39.488Z,20.39
2022-08-09T19:26:31.152Z,20.33
2022-08-09T19:29:01.764Z,20.27
2022-08-09T19:31:44.359Z,20.22
2022-08-09T19:34:21.302Z,20.16
2022-08-09T19:36:50.472Z,20.09
2022-08-09T19:39:17.137Z,20.03
2022-08-09T19:41:47.334Z,19.99
2022-08-09T19:44:17.644Z,19.97
2022-08-09T19:46:50.752Z,19.92
2022-08-09T19:50:07.978Z,19.87
2022-08-09T19:52:10.079Z,19.81
2022-08-09T19:54:42.836Z,19.79
2022-08-09T19:57:10.231Z,19.74
2022-08-09T19:59:58.619Z,19.71
2022-08-09T20:04:12.414Z,19.70
2022-08-09T20:05:16.634Z,19.68
2022-08-09T20:07:58.934Z,19.66
2022-08-09T20:10:36.566Z,19.61
2022-08-09T20:13:06.398Z,19.61
2022-08-09T20:16:37.772Z,19.58
2022-08-09T20:18:22.524Z,19.57
2022-08-09T20:20:51.330Z,19.48
2022-08-09T20:23:23.636Z,19.41
2022-08-09T20:25:52.207Z,19.37
2022-08-09T20:28:27.716Z,19.32
2022-08-09T20:31:02.579Z,19.31
2022-08-09T20:33:39.118Z,19.27
2022-08-09T20:36:08.754Z,19.23
2022-08-09T20:38:52.778Z,19.19
2022-08-09T20:41:32.209Z,19.13
2022-08-09T20:44:03.229Z,19.11
2022-08-09T20:46:42.649Z,19.06
2022-08-09T20:49:12.430Z,19.03
2022-08-09T20:51:40.875Z,19.03
2022-08-09T20:54:12.631Z,19.02
2022-08-09T20:56:43.968Z,18.98
2022-08-09T20:59:17.252Z,18.94
2022-08-09T21:01:50.660Z,18.92
2022-08-09T21:05:53.510Z,18.89
2022-08-09T21:07:12.565Z,18.84
2022-08-09T21:09:56.670Z,18.78
2022-08-09T21:15:16.197Z,18.66
2022-08-09T21:18:24.061Z,18.63
2022-08-09T21:20:31.404Z,18.58
2022-08-09T21:22:59.326Z,18.52
2022-08-09T21:25:44.234Z,18.46
2022-08-09T21:28:34.656Z,18.39
2022-08-09T21:31:16.529Z,18.29
2022-08-09T21:33:50.523Z,18.29
2022-08-09T21:36:19.115Z,18.24
2022-08-09T21:38:45.746Z,18.17
2022-08-09T21:41:53.441Z,18.20
2022-08-09T21:44:10.116Z,18.08
2022-08-09T21:46:36.704Z,18.12
2022-08-09T21:49:03.834Z,18.12
2022-08-09T21:51:36.340Z,18.10
2022-08-09T21:54:10.645Z,17.91
2022-08-09T21:56:44.627Z,17.78
2022-08-09T21:59:23.269Z,17.84
2022-08-09T22:02:00.247Z,17.81
2022-08-09T22:04:55.311Z,17.76
2022-08-09T22:07:35.256Z,17.73
2022-08-09T22:10:03.482Z,17.64
2022-08-09T22:12:31.369Z,17.50
2022-08-09T22:14:58.740Z,17.36
2022-08-09T22:17:25.798Z,17.32
2022-08-09T22:19:59.811Z,17.28
2022-08-09T22:22:28.463Z,17.29
2022-08-09T22:26:05.335Z,17.28
2022-08-09T22:27:41.605Z,17.38
2022-08-09T22:30:09.851Z,17.29
2022-08-09T22:32:37.220Z,17.20
2022-08-09T22:35:06.658Z,17.09
2022-08-09T22:37:39.953Z,17.15
2022-08-09T22:40:07.876Z,17.18
2022-08-09T22:42:34.538Z,17.14
2022-08-09T22:48:11.601Z,17.16
2022-08-09T22:48:14.693Z,16.85
2022-08-09T22:50:34.784Z,16.71
2022-08-09T22:53:03.321Z,16.79
2022-08-09T22:56:06.455Z,16.83
2022-08-09T22:58:20.258Z,16.82
2022-08-09T23:00:57.976Z,16.76
2022-08-09T23:04:02.912Z,16.61
2022-08-09T23:06:14.137Z,16.39
2022-08-09T23:08:44.360Z,16.45
2022-08-09T23:11:20.407Z,16.33
2022-08-09T23:13:50.185Z,16.39
2022-08-09T23:16:19.058Z,16.36
2022-08-09T23:18:45.740Z,16.22
2022-08-09T23:21:14.710Z,16.25
2022-08-09T23:24:06.627Z,16.17
2022-08-09T23:26:34.881Z,16.24
2022-08-09T23:29:01.558Z,16.22
2022-08-09T23:31:28.195Z,16.18
2022-08-09T23:33:54.853Z,16.10
2022-08-09T23:36:21.441Z,16.00
2022-08-09T23:38:48.457Z,15.84
2022-08-09T23:41:28.802Z,15.75
2022-08-09T23:43:58.743Z,15.58
2022-08-09T23:46:25.637Z,15.51
2022-08-09T23:48:52.273Z,15.36
2022-08-09T23:51:19.130Z,15.49
2022-08-09T23:53:45.801Z,15.49
2022-08-09T23:56:16.394Z,15.50
2022-08-09T23:58:44.810Z,15.52
